Hovedside
METAR-TAF:

METAR-TAF

Lufthavner :

Sälen Trysil Airport

Sälen Trysil, Sverige

breddegrad: 61-09-32N, lengdegrad: 12-50-24E, høyde over havet: 490 m

Gjeldene værobservasjon

Denne rapporten ble laget for 19 minutter siden, klokken 09:50 UTC
Vind 9 kt fra Nord, skiftende mellom Vest-nordvest og Nord
Temperatur 14°C
Luftfuktighet 51%
Trykk 1008 hPa
Sikt 10 km eller mer

METAR: ESKS 190950Z AUTO 35009KT 300V010 9999 BKN045/// BKN060/// 14/04 Q1008

Tid: 12:09 (10:09 UTC)


TAF: fraværende

Værobservasjoner og værvarsel for over 4000 flyplasser (METAR- og TAF-rapporter).

Tilgjengelige stasjoner er representert av de røde og gule prikkene på kartet.

Hold musepekeren over prikken for å se navnet på stasjonen.

Klikk så for å se værobservasjoner og -varsler.

For å forandre kartet kan du klikke på den grønne knappen med svart kryss for å zoome inn, på den grønne knappen med strek for å zoome ut, eller på de grønne pilene for å se tilstøtende kart.


METAR-TAF: